N2708E KSEA-EGHI
Flight info
| Callsign | N2708E |
|---|---|
| Flight time | N/A |
| Altitude | 33000 |
| Route | SEA1 SEA J505 ONSET DCT WELLF DCT YMM DCT 62N100W/N0467F350 65N091W 67N080W/N0463F370 68N070W/M080F370 68N060W 67N050W 66N040W 64N030W/M080F390 61N020W DCT GOMUP/N0464F390 DCT GINGA DCT SOSIM L15 HON/N0415F230 L8 BUGUP |
| Aircraft | B737/M-SDE2E3FGHIRWXY/LB1 |
Departure
| Time | 2026-05-07 03:02 |
|---|---|
| Airport | Seattle–Tacoma International Airport (KSEA) |
Arrival
| Time | N/A |
|---|---|
| Airport | Southampton Airport (EGHI) |
| Time | Latitude | Longitude | Altitude | Speed | Heading |
|---|---|---|---|---|---|
| 2026-05-07 02:43 | 47.45355 | -122.30323 | 416 ft | 0 kts | 181° |
| 2026-05-07 02:54 | 47.45356 | -122.30323 | 423 ft | 2 kts | 181° |
| 2026-05-07 02:55 | 47.45382 | -122.30323 | 418 ft | 4 kts | 190° |
| 2026-05-07 02:55 | 47.45398 | -122.30315 | 413 ft | 4 kts | 221° |
| 2026-05-07 02:55 | 47.45410 | -122.30284 | 423 ft | 4 kts | 259° |
| 2026-05-07 02:55 | 47.45412 | -122.30272 | 426 ft | 2 kts | 260° |
| 2026-05-07 02:58 | 47.45411 | -122.30275 | 425 ft | 2 kts | 260° |
| 2026-05-07 02:58 | 47.45406 | -122.30324 | 418 ft | 7 kts | 261° |
| 2026-05-07 02:58 | 47.45396 | -122.30420 | 425 ft | 11 kts | 266° |
| 2026-05-07 02:58 | 47.45445 | -122.30502 | 421 ft | 13 kts | 357° |
| 2026-05-07 02:59 | 47.45532 | -122.30501 | 426 ft | 13 kts | 359° |
| 2026-05-07 02:59 | 47.45628 | -122.30500 | 425 ft | 14 kts | 0° |
| 2026-05-07 02:59 | 47.45709 | -122.30529 | 433 ft | 12 kts | 304° |
| 2026-05-07 02:59 | 47.45757 | -122.30619 | 430 ft | 13 kts | 356° |
| 2026-05-07 03:00 | 47.45846 | -122.30619 | 434 ft | 13 kts | 0° |
| 2026-05-07 03:00 | 47.45932 | -122.30618 | 430 ft | 12 kts | 0° |
| 2026-05-07 03:00 | 47.46033 | -122.30618 | 431 ft | 17 kts | 0° |
| 2026-05-07 03:00 | 47.46157 | -122.30616 | 435 ft | 18 kts | 0° |
| 2026-05-07 03:01 | 47.46279 | -122.30615 | 439 ft | 17 kts | 1° |
| 2026-05-07 03:01 | 47.46365 | -122.30636 | 433 ft | 11 kts | 317° |
| 2026-05-07 03:01 | 47.46367 | -122.30738 | 430 ft | 11 kts | 246° |
| 2026-05-07 03:01 | 47.46301 | -122.30778 | 428 ft | 14 kts | 180° |
| 2026-05-07 03:02 | 47.45943 | -122.30781 | 434 ft | 92 kts | 180° |
| 2026-05-07 03:02 | 47.45055 | -122.30791 | 414 ft | 161 kts | 181° |
| 2026-05-07 03:02 | 47.43778 | -122.30797 | 796 ft | 192 kts | 181° |
| 2026-05-07 03:02 | 47.42420 | -122.30716 | 1755 ft | 199 kts | 169° |
| 2026-05-07 03:03 | 47.41209 | -122.29669 | 2479 ft | 217 kts | 132° |
| 2026-05-07 03:03 | 47.40540 | -122.27503 | 2611 ft | 249 kts | 94° |
| 2026-05-07 03:03 | 47.40924 | -122.24959 | 3216 ft | 264 kts | 60° |
| 2026-05-07 03:03 | 47.41988 | -122.22714 | 4071 ft | 269 kts | 54° |
| 2026-05-07 03:04 | 47.43127 | -122.20494 | 4950 ft | 272 kts | 53° |
| 2026-05-07 03:04 | 47.44264 | -122.18226 | 5752 ft | 277 kts | 53° |
| 2026-05-07 03:04 | 47.45373 | -122.15932 | 6623 ft | 278 kts | 53° |
| 2026-05-07 03:04 | 47.46480 | -122.13568 | 7393 ft | 283 kts | 53° |
| 2026-05-07 03:05 | 47.47598 | -122.11123 | 8073 ft | 290 kts | 53° |
| 2026-05-07 03:05 | 47.48727 | -122.08605 | 8781 ft | 296 kts | 53° |
| 2026-05-07 03:05 | 47.49865 | -122.06032 | 9513 ft | 302 kts | 53° |
| 2026-05-07 03:05 | 47.51017 | -122.03404 | 10204 ft | 308 kts | 53° |
| 2026-05-07 03:06 | 47.52213 | -122.00664 | 10495 ft | 329 kts | 53° |
| 2026-05-07 03:06 | 47.53496 | -121.97717 | 10687 ft | 352 kts | 53° |
| 2026-05-07 03:06 | 47.54861 | -121.94564 | 10864 ft | 375 kts | 53° |
| 2026-05-07 03:06 | 47.56305 | -121.91216 | 11024 ft | 396 kts | 53° |
| 2026-05-07 03:07 | 47.57795 | -121.87744 | 11351 ft | 410 kts | 54° |
| 2026-05-07 03:07 | 47.59330 | -121.84151 | 11937 ft | 415 kts | 54° |
| 2026-05-07 03:07 | 47.60880 | -121.80517 | 12582 ft | 419 kts | 53° |
| 2026-05-07 03:07 | 47.62445 | -121.76844 | 13194 ft | 423 kts | 53° |
| 2026-05-07 03:08 | 47.64026 | -121.73135 | 13781 ft | 428 kts | 53° |
| 2026-05-07 03:08 | 47.65627 | -121.69378 | 14305 ft | 433 kts | 53° |
| 2026-05-07 03:08 | 47.67243 | -121.65580 | 14875 ft | 436 kts | 53° |
| 2026-05-07 03:08 | 47.68855 | -121.61783 | 15452 ft | 437 kts | 53° |
| 2026-05-07 03:09 | 47.70483 | -121.57946 | 15985 ft | 441 kts | 53° |
| 2026-05-07 03:09 | 47.72119 | -121.54086 | 16519 ft | 443 kts | 53° |
| 2026-05-07 03:09 | 47.73763 | -121.50202 | 17044 ft | 445 kts | 53° |
| 2026-05-07 03:09 | 47.75416 | -121.46293 | 17514 ft | 448 kts | 53° |
| 2026-05-07 03:10 | 47.77043 | -121.42300 | 17994 ft | 453 kts | 55° |
| 2026-05-07 03:10 | 47.78563 | -121.38272 | 18682 ft | 450 kts | 57° |
| 2026-05-07 03:10 | 47.80059 | -121.34176 | 19078 ft | 453 kts | 57° |
| 2026-05-07 03:10 | 47.81562 | -121.30023 | 19409 ft | 458 kts | 57° |
| 2026-05-07 03:11 | 47.83082 | -121.25819 | 19771 ft | 461 kts | 57° |
| 2026-05-07 03:11 | 47.84609 | -121.21616 | 20104 ft | 463 kts | 57° |
| 2026-05-07 03:11 | 47.86149 | -121.17388 | 20492 ft | 465 kts | 57° |
| 2026-05-07 03:11 | 47.87680 | -121.13196 | 20837 ft | 468 kts | 57° |
| 2026-05-07 03:12 | 47.89244 | -121.08916 | 21224 ft | 470 kts | 57° |
| 2026-05-07 03:12 | 47.90811 | -121.04625 | 21638 ft | 471 kts | 57° |
| 2026-05-07 03:12 | 47.92376 | -121.00334 | 22024 ft | 473 kts | 57° |
| 2026-05-07 03:12 | 47.93952 | -120.96009 | 22333 ft | 476 kts | 57° |
| 2026-05-07 03:13 | 47.95539 | -120.91645 | 22603 ft | 481 kts | 57° |
| 2026-05-07 03:13 | 47.97133 | -120.87250 | 22996 ft | 482 kts | 57° |
| 2026-05-07 03:13 | 47.98733 | -120.82833 | 23328 ft | 484 kts | 57° |
| 2026-05-07 03:13 | 48.00340 | -120.78387 | 23590 ft | 487 kts | 57° |
| 2026-05-07 03:14 | 48.01932 | -120.73976 | 23885 ft | 489 kts | 57° |
| 2026-05-07 03:14 | 48.03547 | -120.69497 | 24141 ft | 491 kts | 57° |
| 2026-05-07 03:14 | 48.06795 | -120.60459 | 24569 ft | 495 kts | 57° |
| 2026-05-07 03:15 | 48.08425 | -120.55911 | 24809 ft | 497 kts | 57° |
| 2026-05-07 03:15 | 48.10057 | -120.51349 | 25016 ft | 498 kts | 57° |
| 2026-05-07 03:15 | 48.11695 | -120.46763 | 25254 ft | 500 kts | 57° |
| 2026-05-07 03:15 | 48.13337 | -120.42158 | 25518 ft | 502 kts | 57° |
| 2026-05-07 03:16 | 48.14980 | -120.37541 | 25742 ft | 504 kts | 57° |
| 2026-05-07 03:16 | 48.16638 | -120.32880 | 25877 ft | 508 kts | 57° |
| 2026-05-07 03:16 | 48.18299 | -120.28196 | 26063 ft | 509 kts | 57° |
| 2026-05-07 03:16 | 48.19960 | -120.23502 | 26328 ft | 509 kts | 57° |
| 2026-05-07 03:17 | 48.21589 | -120.18887 | 26710 ft | 506 kts | 57° |
| 2026-05-07 03:17 | 48.23232 | -120.14228 | 27111 ft | 505 kts | 57° |
| 2026-05-07 03:17 | 48.24872 | -120.09574 | 27440 ft | 504 kts | 57° |
| 2026-05-07 03:17 | 48.26510 | -120.04915 | 27807 ft | 504 kts | 57° |
| 2026-05-07 03:18 | 48.28140 | -120.00274 | 28249 ft | 503 kts | 56° |
| 2026-05-07 03:18 | 48.29771 | -119.95623 | 28623 ft | 502 kts | 56° |
| 2026-05-07 03:18 | 48.31395 | -119.90986 | 28992 ft | 501 kts | 56° |
| 2026-05-07 03:18 | 48.33021 | -119.86339 | 29347 ft | 501 kts | 56° |
| 2026-05-07 03:19 | 48.34638 | -119.81706 | 29730 ft | 500 kts | 56° |
| 2026-05-07 03:19 | 48.36249 | -119.77076 | 30084 ft | 499 kts | 56° |
| 2026-05-07 03:19 | 48.37857 | -119.72452 | 30373 ft | 499 kts | 56° |
| 2026-05-07 03:19 | 48.39465 | -119.67821 | 30728 ft | 498 kts | 55° |
| 2026-05-07 03:20 | 48.41043 | -119.63264 | 31092 ft | 495 kts | 55° |
| 2026-05-07 03:20 | 48.42632 | -119.58669 | 31396 ft | 494 kts | 55° |
| 2026-05-07 03:20 | 48.44218 | -119.54076 | 31669 ft | 494 kts | 55° |
| 2026-05-07 03:20 | 48.45802 | -119.49483 | 31939 ft | 493 kts | 55° |
| 2026-05-07 03:21 | 48.47378 | -119.44901 | 32240 ft | 492 kts | 54° |
| 2026-05-07 03:21 | 48.48949 | -119.40325 | 32581 ft | 489 kts | 54° |
| 2026-05-07 03:21 | 48.50514 | -119.35758 | 32871 ft | 488 kts | 54° |
| 2026-05-07 03:22 | 48.53629 | -119.26659 | 32878 ft | 491 kts | 54° |
| 2026-05-07 03:22 | 48.56744 | -119.17511 | 32856 ft | 488 kts | 54° |
| 2026-05-07 03:23 | 48.59832 | -119.08407 | 32860 ft | 485 kts | 54° |
| 2026-05-07 03:23 | 48.62900 | -118.99336 | 32875 ft | 483 kts | 54° |
| 2026-05-07 03:24 | 48.65957 | -118.90276 | 32864 ft | 484 kts | 54° |
| 2026-05-07 03:24 | 48.68991 | -118.81248 | 32863 ft | 485 kts | 54° |
| 2026-05-07 03:25 | 48.72039 | -118.72145 | 32886 ft | 486 kts | 54° |
| 2026-05-07 03:25 | 48.75103 | -118.62961 | 32870 ft | 489 kts | 54° |
| 2026-05-07 03:26 | 48.78185 | -118.53689 | 32869 ft | 493 kts | 54° |
| 2026-05-07 03:26 | 48.81248 | -118.44435 | 32864 ft | 493 kts | 54° |
| 2026-05-07 03:27 | 48.84323 | -118.35106 | 32854 ft | 494 kts | 54° |
| 2026-05-07 03:27 | 48.87388 | -118.25774 | 32853 ft | 493 kts | 54° |
| 2026-05-07 03:28 | 48.90441 | -118.16453 | 32868 ft | 492 kts | 54° |